Basail, Argentina
Current Conditions -  °F | °C
As of 6:00 PM on Friday 19 Dec 2014 (Local Time) from SARE Reporting Station
Few Clouds Few Clouds  
Wind Chill: 90°   Ceiling: Unl
Heat Index: 95°   Visibility: 6mi
Dew Point: 70°   Wind: 5mph
Humidity: 52%   Direction: 90°E
Pressure: 29.59"   Gusts: NA
Location:  27.95°S, 59.27°W
Report Text: SARE 192100Z 09004KT 9999 FEW030 32/21 Q1002
Loading
Personal Weather Stations






























Interactive Weather Map New forecast layout! Learn more

10-Day Weather Forecast

Advertisements
Track Severe Weather on mobile